Tiempo atmosférico en la estación meteorológica de Almendralejo, Badajoz (371 m.)



Fecha
DESCASC
Temp. máxima en grados centígrados (hora)
DESCASC
Temp. mínima en grados centígrados (hora)
DESCASC
Temp. media en grados centígrados
DESCASC
Racha de viento máxima en m/sg (hora)
DESCASC
Velocidad máxima media en intervalos de 10 minutos(hora)
DESCASC
Precipitaciones diarias en mm
DESCASC
Precipitaciones de 00:00 a 06:00 en mm
DESCASC
Precipitaciones de 06:00 a 12:00 en mm
DESCASC
Precipitaciones de 12:00 a 18:00 en mm
DESCASC
Precipitaciones de 18:00 a 24:00 en mm
DESCASC
13-10-2019 28 (17:30) 12.3 (07:40) 20.2 10.28 (16:40) 6.39 (16:40) 0 0 0 0 0
12-10-2019 31.7 (16:40) 18.4 (09:10) 25.1 15.28 (16:20) 9.17 (17:50) 0 0 0 0 0
11-10-2019 29.7 (15:00) 16.6 (08:40) 23.2 9.72 (18:20) 6.94 (18:20) 0 0 0 0 0
10-10-2019 30.7 (15:40) 13.1 (00:00) 21.9 7.22 (16:40) 4.44 (16:10) 0 0 0 0 0
09-10-2019 29.5 (17:10) 16.1 (00:00) 22.8 7.22 (16:40) 4.17 (09:40) 0 0 0 0 0
08-10-2019 34.1 (16:50) 16.9 (00:00) 25.5 6.94 (22:10) 4.44 (19:00) 0 0 0 0 0
07-10-2019 30.8 (17:40) 14.6 (00:00) 22.7 5.28 (18:30) 3.33 (04:20) 0 0 0 0 0
06-10-2019 28.8 (16:20) 10.6 (00:00) 19.7 8.61 (17:30) 4.72 (01:30) 0 0 0 0 0
05-10-2019 26.4 (16:20) 12 (00:00) 19.2 7.22 (17:00) 4.72 (00:40) 0 0 0 0 0
04-10-2019 27.1 (17:20) 14 (00:00) 20.6 7.78 (18:10) 5 (01:20) 0 0 0 0 0
03-10-2019 27.7 (17:40) 12.2 (00:00) 20 8.33 (16:50) 5 (16:50) 0 0 0 0 0
02-10-2019 26.4 (17:40) 12 (00:00) 19.2 9.17 (00:40) 5.83 (00:10) 0 0 0 0 0
01-10-2019 27 (16:20) 15.6 (00:00) 21.3 11.39 (14:20) 7.22 (15:20) 0 0 0 0 0
30-09-2019 33.7 (16:50) 13.8 (00:00) 23.8 8.89 (19:10) 5.28 (18:40) 0 0 0 0 0
29-09-2019 31.6 (16:00) 14.5 (00:00) 23.1 6.94 (14:30) 3.89 (19:10) 0 0 0 0 0
28-09-2019 33.4 (17:10) 13.4 (00:00) 23.4 10.83 (18:00) 5.56 (18:00) 0 0 0 0 0
27-09-2019 30.7 (16:50) 13.5 (00:00) 22.1 6.67 (18:40) 3.89 (18:40) 0 0 0 0 0
26-09-2019 29.8 (17:30) 12.5 (00:00) 21.1 6.39 (15:00) 4.17 (19:40) 0 0 0 0 0
25-09-2019 26.3 (18:00) 13.4 (00:00) 19.8 10 (15:00) 6.11 (00:40) 0 0 0 0 0
24-09-2019 27.8 (16:40) 13.3 (00:00) 20.5 9.17 (18:00) 6.39 (17:50) 0 0 0 0 0
23-09-2019 26.7 (17:20) 11.1 (00:00) 18.9 5.28 (18:00) 3.06 (19:50) 0 0 0 0 0
22-09-2019 22.8 (17:20) 13.9 (00:00) 18.3 9.17 (01:40) 5.83 (02:00) 1.4 1.4 0 0 0
21-09-2019 23.5 (17:40) 17.6 (00:00) 20.6 12.78 (20:40) 8.06 (20:40) 1.8 0 0.8 0.4 0.6
20-09-2019 27 (14:50) 15.4 (00:00) 21.2 10 (14:50) 6.67 (14:10) 0 0 0 0 0
19-09-2019 31 (17:40) 14.8 (00:00) 22.9 8.33 (00:50) 5.28 (20:40) 0 0 0 0 0
18-09-2019 31.2 (17:40) 16.9 (00:00) 24.1 10.28 (17:30) 4.44 (19:10) 0 0 0 0 0
17-09-2019 32 (15:40) 17 (00:00) 24.5 8.33 (17:50) 5.56 (17:50) 0 0 0 0 0
16-09-2019 31.2 (16:40) 18.6 (00:00) 24.9 7.22 (16:20) 4.17 (15:20) 0 0 0 0 0

Gráficas

Temp. máximas Temp. mínimas Temp. medias Precipitaciones Rachas de viento máximas Velocidades máximas media en intervalos de 10 minutos

Datos horarios

Fecha y hora oficial Temperatura (ºC) Velocidad del viento (km/h) Dirección del viento Racha (km/h) Dirección de racha Precipitación (mm) Presión (hPa) Tendencia (hPa) Humedad (%)
2019-10-15 23:00:00 12.3 10 Sudoeste 11 Sudoeste 0 -- -- 69
2019-10-15 22:00:00 13.4 7 Sudoeste 10 Sudoeste 0 -- -- 66
2019-10-15 21:00:00 14.3 3 Nordeste 4 Norte 0 -- -- 59
2019-10-15 20:00:00 15.5 4 Norte 13 Norte 0 -- -- 58
2019-10-15 19:00:00 16.6 7 Norte 17 Noroeste 0 -- -- 52
2019-10-15 18:00:00 17.4 10 Norte 21 Noroeste 0 -- -- 52
2019-10-15 17:00:00 17.5 8 Norte 19 Norte 0 -- -- 49
2019-10-15 16:00:00 17.7 7 Norte 16 Noroeste 0 -- -- 54
2019-10-15 15:00:00 17.1 7 Norte 17 Noroeste 0 -- -- 53
2019-10-15 14:00:00 15.9 5 Norte 23 Norte 0 -- -- 61
2019-10-15 13:00:00 15 10 Norte 16 Norte 0 -- -- 69
2019-10-15 12:00:00 13.7 6 Noroeste 13 Noroeste 0 -- -- 78
2019-10-15 11:00:00 12.2 9 Norte 14 Norte 0 -- -- 81
2019-10-15 10:00:00 10 4 Oeste 8 Sudoeste 0 -- -- 88
2019-10-15 09:00:00 7.8 3 Sur 10 Noroeste 0 -- -- 90
2019-10-15 08:00:00 8.8 8 Noroeste 12 Noroeste 0 -- -- 89
2019-10-15 07:00:00 8.3 6 Noroeste 12 Noroeste 0 -- -- 90
2019-10-15 06:00:00 8.5 5 Noroeste 11 Noroeste 0 -- -- 89
2019-10-15 05:00:00 8.3 8 Oeste 12 Oeste 0 -- -- 90
2019-10-15 04:00:00 8.6 9 Oeste 14 Oeste 0 -- -- 90
2019-10-15 03:00:00 8.9 7 Oeste 14 Noroeste 0 -- -- 88
2019-10-15 02:00:00 10 9 Noroeste 19 Noroeste 0 -- -- 85
2019-10-15 01:00:00 10.4 12 Noroeste 21 Noroeste 0 -- -- 83
2019-10-15 00:00:00 11.3 14 Noroeste 21 Noroeste 0 -- -- 82
2019-10-14 23:00:00 12.2 10 Noroeste 20 Noroeste 0 -- -- 84
2019-10-14 22:00:00 13.1 11 Noroeste 22 Noroeste 0 -- -- 83
2019-10-14 21:00:00 13.2 11 Oeste 19 Oeste 0 -- -- 82
2019-10-14 20:00:00 13.8 9 Noroeste 27 Noroeste 0 -- -- 77
2019-10-14 19:00:00 14.3 14 Noroeste 33 Oeste 0 -- -- 75
2019-10-14 18:00:00 14.3 9 Noroeste 28 Oeste 0 -- -- 85
2019-10-14 17:00:00 14.2 20 Noroeste 33 Noroeste 0 -- -- 87
2019-10-14 16:00:00 14.4 19 Noroeste 51 Noroeste 0 -- -- 91
2019-10-14 15:00:00 18.9 22 Oeste 41 Oeste 0 -- -- 58
2019-10-14 14:00:00 18.7 19 Oeste 34 Oeste 0 -- -- 59
2019-10-14 13:00:00 17.7 22 Oeste 35 Oeste 0 -- -- 64
2019-10-14 12:00:00 17.1 20 Oeste 32 Oeste 0 -- -- 69
2019-10-14 11:00:00 16.1 15 Noroeste 28 Noroeste 0 -- -- 76
2019-10-14 10:00:00 15 16 Noroeste 31 Noroeste 0 -- -- 86
2019-10-14 09:00:00 14.6 13 Noroeste 27 Oeste 0 -- -- 89
2019-10-14 08:00:00 15.4 17 Noroeste 27 Noroeste 0 -- -- 89
2019-10-14 07:00:00 15.9 16 Oeste 35 Noroeste 0.2 -- -- 91
2019-10-14 06:00:00 17 14 Sudoeste 33 Oeste 0 -- -- 72
2019-10-14 05:00:00 17.2 16 Oeste 31 Oeste 0 -- -- 72
2019-10-14 04:00:00 17.5 9 Noroeste 20 Noroeste 0 -- -- 61
2019-10-14 03:00:00 18.4 14 Sudoeste 20 Sudoeste 0 -- -- 47
2019-10-14 02:00:00 18.9 12 Sudoeste 17 Sudoeste 0 -- -- 46
2019-10-14 01:00:00 19.9 12 Sudoeste 20 Sudoeste 0 -- -- 43
2019-10-14 00:00:00 20.8 15 Sudoeste 21 Sudoeste 0 -- -- 41
2019-10-13 23:00:00 21.7 17 Sudoeste 23 Sudoeste 0 -- -- 39
2019-10-13 22:00:00 22 12 Oeste 15 Oeste 0 -- -- 40
2019-10-13 21:00:00 23.9 12 Sudoeste 19 Sudoeste 0 -- -- 38
2019-10-13 20:00:00 25.6 14 Oeste 27 Oeste 0 -- -- 35
2019-10-13 19:00:00 27.4 18 Oeste 31 Sudoeste 0 -- -- 32
2019-10-13 18:00:00 28 13 Oeste 31 Oeste 0 -- -- 32
2019-10-13 17:00:00 27.9 18 Oeste 37 Oeste 0 -- -- 33
2019-10-13 16:00:00 27 15 Sudoeste 26 Oeste 0 -- -- 34
2019-10-13 15:00:00 25.5 8 Oeste 21 Sur 0 -- -- 41
2019-10-13 14:00:00 23.6 10 Sur 20 Sur 0 -- -- 47
2019-10-13 13:00:00 22.2 9 Sudoeste 23 Sudoeste 0 -- -- 54
2019-10-13 12:00:00 20 11 Sudoeste 19 Sudoeste 0 -- -- 61
2019-10-13 11:00:00 18.5 6 Sudoeste 14 Sudoeste 0 -- -- 67
2019-10-13 10:00:00 15 9 Sur 14 Sur 0 -- -- 77
2019-10-13 09:00:00 12.4 11 Sudoeste 15 Sudoeste 0 -- -- 85
2019-10-13 08:00:00 12.4 10 Sudoeste 15 Sudoeste 0 -- -- 86
2019-10-13 07:00:00 12.8 8 Sudoeste 11 Sudoeste 0 -- -- 82
2019-10-13 06:00:00 13.7 3 Sudoeste 9 Sudoeste 0 -- -- 78
2019-10-13 05:00:00 14.3 3 Oeste 12 Sudoeste 0 -- -- 77
2019-10-13 04:00:00 14.9 2 Este 9 Sudoeste 0 -- -- 72
2019-10-13 03:00:00 16.3 3 Oeste 12 Noroeste 0 -- -- 68
2019-10-13 02:00:00 17.6 6 Noroeste 17 Noroeste 0 -- -- 65
2019-10-13 01:00:00 18.8 10 Noroeste 19 Noroeste 0 -- -- 63
2019-10-13 00:00:00 20 10 Noroeste 17 Noroeste 0 -- -- 63
2019-10-12 23:00:00 21.2 12 Oeste 16 Oeste 0 -- -- 53
2019-10-12 22:00:00 22.4 12 Oeste 21 Oeste 0 -- -- 47
2019-10-12 21:00:00 24.4 17 Sudoeste 31 Oeste 0 -- -- 41
2019-10-12 20:00:00 26.1 20 Oeste 43 Oeste 0 -- -- 37
2019-10-12 19:00:00 28.8 28 Sudoeste 47 Sudoeste 0 -- -- 34
2019-10-12 18:00:00 30.7 31 Sudoeste 51 Sudoeste 0 -- -- 26
2019-10-12 17:00:00 31.5 28 Sudoeste 55 Sudoeste 0 -- -- 24
2019-10-12 16:00:00 30.8 25 Sudoeste 39 Sudoeste 0 -- -- 25
2019-10-12 15:00:00 30 21 Sudoeste 44 Oeste 0 -- -- 27
2019-10-12 14:00:00 29.4 19 Oeste 33 Sudoeste 0 -- -- 31
2019-10-12 13:00:00 29 17 Sur 27 Sudoeste 0 -- -- 31
2019-10-12 12:00:00 25.6 12 Sudeste 20 Sudeste 0 -- -- 40
2019-10-12 11:00:00 21.6 5 Sur 15 Este 0 -- -- 54
2019-10-12 10:00:00 19.3 7 Sur 9 Sudoeste 0 -- -- 62
2019-10-12 09:00:00 18.5 7 Sur 10 Sur 0 -- -- 63
2019-10-12 08:00:00 19.1 4 Noroeste 10 Noroeste 0 -- -- 61
2019-10-12 07:00:00 20.2 4 Oeste 12 Noroeste 0 -- -- 52
2019-10-12 06:00:00 21.3 8 Oeste 16 Sur 0 -- -- 49
2019-10-12 05:00:00 21.3 6 Sudeste 14 Sur 0 -- -- 48
2019-10-12 04:00:00 21.4 6 Nordeste 9 Sur 0 -- -- 47
2019-10-12 03:00:00 21.5 4 Sudeste 9 Sudeste 0 -- -- 47
2019-10-12 02:00:00 22.2 6 Noroeste 19 Norte 0 -- -- 45
2019-10-12 01:00:00 22.4 9 Sur 15 Sur 0 -- -- 45
2019-10-12 00:00:00 22.6 13 Sudoeste 19 Sudoeste 0 -- -- 43
2019-10-11 23:00:00 23.6 12 Sudoeste 17 Sudoeste 0 -- -- 42
2019-10-11 22:00:00 24.1 9 Sur 14 Sur 0 -- -- 40
2019-10-11 21:00:00 24.7 8 Sur 11 Sudoeste 0 -- -- 39
2019-10-11 20:00:00 25.8 8 Oeste 19 Oeste 0 -- -- 38
2019-10-11 19:00:00 27.2 14 Sudoeste 35 Sudoeste 0 -- -- 35
2019-10-11 18:00:00 28.5 21 Sudoeste 30 Sudoeste 0 -- -- 32
2019-10-11 17:00:00 29.3 12 Sudoeste 22 Sudoeste 0 -- -- 31
2019-10-11 16:00:00 28.6 3 Sudoeste 19 Sur 0 -- -- 34
2019-10-11 15:00:00 29.7 11 Oeste 24 Oeste 0 -- -- 32
2019-10-11 14:00:00 28.3 13 Sudoeste 23 Sudoeste 0 -- -- 35
2019-10-11 13:00:00 26.3 7 Sur 20 Sudoeste 0 -- -- 41
2019-10-11 12:00:00 24.1 9 Sur 21 Sudoeste 0 -- -- 50
2019-10-11 11:00:00 21.3 11 Sur 21 Sur 0 -- -- 60
2019-10-11 10:00:00 19.3 13 Sur 18 Sur 0 -- -- 66
2019-10-11 09:00:00 16.6 12 Sur 16 Sur 0 -- -- 68
2019-10-11 08:00:00 16.9 10 Sur 16 Sur 0 -- -- 65
2019-10-11 07:00:00 17.4 9 Sur 17 Sur 0 -- -- 57
2019-10-11 06:00:00 17.9 10 Sur 18 Sur 0 -- -- 53
2019-10-11 05:00:00 17.7 12 Sur 16 Sur 0 -- -- 53
2019-10-11 04:00:00 18.4 11 Sur 13 Sur 0 -- -- 51
2019-10-11 03:00:00 19.4 7 Sudeste 14 Sudoeste 0 -- -- 47
2019-10-11 02:00:00 20.8 12 Sudoeste 17 Sudoeste 0 -- -- 45
2019-10-11 01:00:00 21.1 11 Sudoeste 13 Sudoeste 0 -- -- 44
2019-10-11 00:00:00 21.8 9 Sudoeste 10 Sudoeste 0 -- -- 43
2019-10-10 23:00:00 23.3 2 Nordeste 6 Norte 0 -- -- 43
2019-10-10 22:00:00 24.5 6 Norte 9 Norte 0 -- -- 40
2019-10-10 21:00:00 25.2 8 Norte 12 Norte 0 -- -- 37
2019-10-10 20:00:00 27.3 10 Norte 17 Norte 0 -- -- 33
2019-10-10 19:00:00 29.3 12 Norte 21 Norte 0 -- -- 30
2019-10-10 18:00:00 30 12 Norte 23 Norte 0 -- -- 28
2019-10-10 17:00:00 30.4 14 Norte 26 Norte 0 -- -- 27
2019-10-10 16:00:00 30.6 13 Norte 22 Norte 0 -- -- 27
2019-10-10 15:00:00 29.9 8 Este 15 Nordeste 0 -- -- 27
2019-10-10 14:00:00 28.6 6 Este 13 Sudeste 0 -- -- 27
2019-10-10 13:00:00 26.3 6 Este 13 Este 0 -- -- 29
2019-10-10 12:00:00 23.7 6 Sudeste 10 Sudeste 0 -- -- 32
2019-10-10 11:00:00 20.8 5 Sudeste 9 Sudeste 0.6 -- -- 38
2019-10-10 10:00:00 17.9 5 Sur 7 Sur 0 -- -- 42
2019-10-10 09:00:00 13.7 3 Sur 10 Sudoeste 0 -- -- 51
2019-10-10 08:00:00 13.1 10 Sudoeste 10 Sudoeste 0 -- -- 52
2019-10-10 07:00:00 13.6 5 Sudoeste 6 Sudoeste 0 -- -- 51
2019-10-10 06:00:00 14.8 4 Sudoeste 6 Noroeste 0 -- -- 50
2019-10-10 05:00:00 16.5 5 Noroeste 8 Noroeste 0 -- -- 47
2019-10-10 04:00:00 15.2 8 Oeste 10 Oeste 0 -- -- 50
2019-10-10 03:00:00 15.8 9 Oeste 10 Oeste 0 -- -- 50
2019-10-10 02:00:00 17.9 6 Noroeste 12 Noroeste 0 -- -- 45
2019-10-10 01:00:00 18.9 6 Noroeste 13 Noroeste 0 -- -- 43
2019-10-10 00:00:00 19.6 10 Noroeste 15 Noroeste 0 -- -- 41
2019-10-09 23:00:00 21.2 6 Noroeste 16 Noroeste 0 -- -- 38
2019-10-09 22:00:00 22.8 12 Noroeste 15 Noroeste 0 -- -- 37
2019-10-09 21:00:00 24.4 8 Noroeste 13 Noroeste 0 -- -- 37
2019-10-09 20:00:00 26.1 8 Noroeste 23 Norte 0 -- -- 33
2019-10-09 19:00:00 27.9 14 Noroeste 25 Norte 0 -- -- 36
2019-10-09 18:00:00 28.8 13 Norte 23 Norte 0 -- -- 37
2019-10-09 17:00:00 29.2 9 Norte 26 Oeste 0 -- -- 39
2019-10-09 16:00:00 28.6 10 Noroeste 23 Noroeste 0 -- -- 42
2019-10-09 15:00:00 27.5 10 Norte 22 Norte 0 -- -- 46
2019-10-09 14:00:00 25.7 11 Norte 23 Nordeste 0 -- -- 52
2019-10-09 13:00:00 24.5 10 Norte 18 Noroeste 0 -- -- 56
2019-10-09 12:00:00 23.2 5 Norte 10 Norte 0 -- -- 60
2019-10-09 11:00:00 19.6 6 Oeste 15 Noroeste 0 -- -- 72
2019-10-09 10:00:00 17.4 10 Noroeste 22 Noroeste 0 -- -- 80
2019-10-09 09:00:00 16.2 15 Noroeste 22 Noroeste 0 -- -- 86
2019-10-09 08:00:00 16.4 7 Noroeste 18 Noroeste 0 -- -- 87
2019-10-09 07:00:00 16.9 8 Noroeste 19 Norte 0 -- -- 86
2019-10-09 06:00:00 17.5 14 Noroeste 18 Noroeste 0 -- -- 84
2019-10-09 05:00:00 18.1 12 Noroeste 17 Norte 0 -- -- 80
2019-10-09 04:00:00 19.3 6 Noroeste 15 Noroeste 0 -- -- 71
2019-10-09 03:00:00 20 10 Oeste 11 Noroeste 0 -- -- 67
2019-10-09 02:00:00 21.7 5 Noroeste 19 Noroeste 0 -- -- 64
2019-10-09 01:00:00 22.6 10 Noroeste 20 Noroeste 0 -- -- 62
2019-10-09 00:00:00 23.7 8 Noroeste 17 Noroeste 0 -- -- 51
2019-10-08 23:00:00 24.7 9 Noroeste 25 Noroeste 0 -- -- 45
2019-10-08 22:00:00 26.1 10 Noroeste 16 Norte 0 -- -- 30
2019-10-08 21:00:00 27.3 8 Norte 12 Norte 0 -- -- 29
2019-10-08 20:00:00 29.7 9 Norte 24 Noroeste 0 -- -- 25
2019-10-08 19:00:00 31.8 16 Norte 23 Norte 0 -- -- 23
2019-10-08 18:00:00 33.4 7 Noroeste 21 Noroeste 0 -- -- 22
2019-10-08 17:00:00 34.1 10 Noroeste 18 Oeste 0 -- -- 21
2019-10-08 16:00:00 33.6 9 Noroeste 18 Norte 0 -- -- 23
2019-10-08 15:00:00 32.8 7 Norte 19 Noroeste 0 -- -- 24
2019-10-08 14:00:00 32 4 Noroeste 15 Noroeste 0 -- -- 24
2019-10-08 13:00:00 30.5 5 Sudeste 11 Este 0 -- -- 26
2019-10-08 12:00:00 27.5 5 Sudeste 9 Sudeste 0 -- -- 30
2019-10-08 11:00:00 25 2 Este 6 Sudeste 0 -- -- 35
2019-10-08 10:00:00 20.5 3 Sudeste 6 Nordeste 0 -- -- 41
2019-10-08 09:00:00 19.8 5 Nordeste 6 Noroeste 0 -- -- 43
2019-10-08 08:00:00 19.2 0 Calma 7 Sur 0 -- -- 44
2019-10-08 07:00:00 17.4 7 Sudoeste 13 Sudoeste 0 -- -- 46
2019-10-08 06:00:00 18.2 3 Este 4 Sudoeste 0 -- -- 45
2019-10-08 05:00:00 18.1 3 Oeste 12 Sudoeste 0 -- -- 43
2019-10-08 04:00:00 18.3 11 Sudoeste 14 Sudoeste 0 -- -- 42
2019-10-08 03:00:00 19 9 Oeste 11 Oeste 0 -- -- 41
2019-10-08 02:00:00 20.4 10 Oeste 12 Oeste 0 -- -- 38
2019-10-08 01:00:00 20.8 12 Oeste 13 Oeste 0 -- -- 35
2019-10-08 00:00:00 22.8 8 Oeste 10 Oeste 0 -- -- 30
2019-10-07 23:00:00 25.4 5 Noroeste 8 Oeste 0 -- -- 27
2019-10-07 22:00:00 25.4 6 Oeste 7 Oeste 0 -- -- 27
2019-10-07 21:00:00 26.7 0 Calma 4 Sudeste 0 -- -- 25
2019-10-07 20:00:00 28.5 4 Sur -- -- 0 -- -- 24
2019-10-07 19:00:00 30.1 6 Nordeste 19 Este 0 -- -- 22
2019-10-07 18:00:00 30.8 6 Nordeste 15 Nordeste 0 -- -- 20
2019-10-07 17:00:00 30.6 9 Este 16 Este 0 -- -- 21
2019-10-07 16:00:00 30.1 6 Este 17 Nordeste 0 -- -- 24
2019-10-07 15:00:00 28.7 7 Nordeste 17 Nordeste 0 -- -- 29
2019-10-07 14:00:00 27.2 4 Noroeste 12 Este 0 -- -- 32
2019-10-07 13:00:00 25.5 5 Sudeste 13 Nordeste 0 -- -- 37
2019-10-07 12:00:00 23 4 Este 14 Nordeste 0 -- -- 46
2019-10-07 11:00:00 20.8 9 Norte 13 Norte 0 -- -- 55
2019-10-07 10:00:00 18.6 8 Norte 11 Norte 0 -- -- 63
2019-10-07 09:00:00 15.8 3 Norte 10 Oeste 0 -- -- 68
2019-10-07 08:00:00 14.7 9 Oeste 12 Oeste 0 -- -- 69
2019-10-07 07:00:00 15.7 9 Noroeste 13 Oeste 0 -- -- 68
2019-10-07 06:00:00 16.1 7 Noroeste 13 Oeste 0 -- -- 68
2019-10-07 05:00:00 16.7 9 Noroeste 15 Noroeste 0 -- -- 65
2019-10-07 04:00:00 17.9 10 Noroeste 14 Noroeste 0 -- -- 59
2019-10-07 03:00:00 18.4 6 Noroeste 14 Noroeste 0 -- -- 55
2019-10-07 02:00:00 18.7 12 Oeste 13 Noroeste 0 -- -- 51
2019-10-07 01:00:00 20.3 11 Noroeste 17 Noroeste 0 -- -- 48
2019-10-07 00:00:00 21.1 7 Noroeste 14 Noroeste 0 -- -- 43
2019-10-06 23:00:00 20.7 8 Oeste 10 Oeste 0 -- -- 38
2019-10-06 22:00:00 22.4 8 Oeste 9 Oeste 0 -- -- 35
2019-10-06 21:00:00 23.6 9 Oeste 9 Oeste 0 -- -- 33
2019-10-06 20:00:00 26.5 8 Noroeste 14 Norte 0 -- -- 30
2019-10-06 19:00:00 28 9 Norte 19 Norte 0 -- -- 25
2019-10-06 18:00:00 28.5 10 Norte 31 Norte 0 -- -- 23
2019-10-06 17:00:00 28.6 12 Norte 24 Noroeste 0 -- -- 25
2019-10-06 16:00:00 28.7 9 Noroeste 20 Noroeste 0 -- -- 33
2019-10-06 15:00:00 27.8 10 Noroeste 19 Noroeste 0 -- -- 36
2019-10-06 14:00:00 26.5 7 Norte 14 Norte 0 -- -- 39
2019-10-06 13:00:00 24.1 6 Nordeste 12 Norte 0 -- -- 44
2019-10-06 12:00:00 21.3 5 Sur 10 Sudoeste 0 -- -- 50
2019-10-06 11:00:00 17.8 4 Sudoeste 9 Noroeste 0 -- -- 63
2019-10-06 10:00:00 14.9 6 Norte 11 Norte 0 -- -- 73
2019-10-06 09:00:00 11.3 2 Noroeste 4 Noroeste 0 -- -- 79
2019-10-06 08:00:00 11 2 Oeste 8 Sudoeste 0 -- -- 82
2019-10-06 07:00:00 10.9 7 Sudoeste 9 Sudoeste 0 -- -- 74
2019-10-06 06:00:00 12.5 4 Oeste 10 Noroeste 0 -- -- 72
2019-10-06 05:00:00 14.2 8 Noroeste 12 Noroeste 0 -- -- 68
2019-10-06 04:00:00 14.3 7 Noroeste 10 Noroeste 0 -- -- 70
2019-10-06 03:00:00 14.5 6 Oeste 17 Noroeste 0 -- -- 64
2019-10-06 02:00:00 16.3 11 Noroeste 23 Noroeste 0 -- -- 62
2019-10-06 01:00:00 17.8 13 Noroeste 20 Noroeste 0 -- -- 54
2019-10-06 00:00:00 18.9 7 Noroeste 17 Noroeste 0 -- -- 52
2019-10-05 23:00:00 20.1 10 Noroeste 15 Noroeste 0 -- -- 50
2019-10-05 22:00:00 20.5 5 Noroeste 9 Noroeste 0 -- -- 49
2019-10-05 21:00:00 21.7 6 Noroeste 10 Noroeste 0 -- -- 45
2019-10-05 20:00:00 23.4 8 Norte 21 Norte 0 -- -- 40
2019-10-05 19:00:00 24.7 13 Noroeste 24 Noroeste 0 -- -- 39
2019-10-05 18:00:00 25.5 14 Noroeste 23 Noroeste 0 -- -- 34
2019-10-05 17:00:00 26 14 Noroeste 26 Noroeste 0 -- -- 35
2019-10-05 16:00:00 25.9 12 Noroeste 22 Noroeste 0 -- -- 38
2019-10-05 15:00:00 25 11 Noroeste 20 Noroeste 0 -- -- 46
2019-10-05 14:00:00 22.7 8 Norte 21 Noroeste 0 -- -- 52
2019-10-05 13:00:00 20.9 6 Noroeste 12 Noroeste 0 -- -- 58
2019-10-05 12:00:00 18.5 5 Noroeste 11 Noroeste 0 -- -- 67
2019-10-05 11:00:00 15.6 4 Norte 10 Noroeste 0 -- -- 76
2019-10-05 10:00:00 13.5 4 Norte 7 Noroeste 0 -- -- 82
2019-10-05 09:00:00 12.5 5 Noroeste 10 Norte 0 -- -- 87
2019-10-05 08:00:00 12.2 3 Norte 9 Noroeste 0 -- -- 84
2019-10-05 07:00:00 12.8 4 Noroeste 9 Sudoeste 0 -- -- 83
2019-10-05 06:00:00 12.8 8 Sudoeste 11 Sudoeste 0 -- -- 81
2019-10-05 05:00:00 13.2 7 Sudoeste 9 Oeste 0 -- -- 79
2019-10-05 04:00:00 15 7 Oeste 12 Noroeste 0 -- -- 73
2019-10-05 03:00:00 16.3 11 Noroeste 19 Noroeste 0 -- -- 72
2019-10-05 02:00:00 17.4 12 Noroeste 19 Noroeste 0 -- -- 69
2019-10-05 01:00:00 18.5 12 Noroeste 25 Noroeste 0 -- -- 65
2019-10-05 00:00:00 19.7 14 Noroeste 19 Noroeste 0 -- -- 62
2019-10-04 23:00:00 21.1 12 Noroeste 22 Noroeste 0 -- -- 57
2019-10-04 22:00:00 22.4 5 Noroeste 12 Noroeste 0 -- -- 50
2019-10-04 21:00:00 23.2 10 Noroeste 14 Norte 0 -- -- 50
2019-10-04 20:00:00 25 11 Noroeste 21 Noroeste 0 -- -- 45
2019-10-04 19:00:00 26.5 10 Noroeste 28 Norte 0 -- -- 42
2019-10-04 18:00:00 26.6 14 Norte 24 Norte 0 -- -- 42
2019-10-04 17:00:00 26.9 10 Noroeste 24 Norte 0 -- -- 44
2019-10-04 16:00:00 25.9 12 Norte 27 Norte 0 -- -- 47
2019-10-04 15:00:00 25 12 Noroeste 23 Noroeste 0 -- -- 51
2019-10-04 14:00:00 23.8 8 Noroeste 20 Noroeste 0 -- -- 56
2019-10-04 13:00:00 22.3 8 Noroeste 21 Noroeste 0 -- -- 61
2019-10-04 12:00:00 20.9 9 Noroeste 18 Oeste 0 -- -- 66
2019-10-04 11:00:00 18.8 5 Noroeste 15 Noroeste 0 -- -- 74
2019-10-04 10:00:00 16.8 9 Noroeste 15 Noroeste 0 -- -- 83
2019-10-04 09:00:00 14.6 5 Noroeste 11 Noroeste 0 -- -- 90
2019-10-04 08:00:00 14.3 8 Noroeste 12 Noroeste 0 -- -- 88
2019-10-04 07:00:00 15 5 Noroeste 12 Noroeste 0 -- -- 85
2019-10-04 06:00:00 15.4 6 Oeste 10 Noroeste 0 -- -- 84
2019-10-04 05:00:00 16.1 7 Oeste 14 Oeste 0 -- -- 80
2019-10-04 04:00:00 16.9 6 Oeste 17 Noroeste 0 -- -- 77
2019-10-04 03:00:00 17.8 11 Noroeste 21 Noroeste 0 -- -- 74
2019-10-04 02:00:00 18.7 16 Noroeste 26 Noroeste 0 -- -- 70
2019-10-04 01:00:00 19.6 17 Noroeste 26 Noroeste 0 -- -- 66
2019-10-04 00:00:00 20.2 15 Noroeste 22 Noroeste 0 -- -- 57
2019-10-03 23:00:00 21.1 9 Noroeste 17 Noroeste 0 -- -- 36
2019-10-03 22:00:00 22.2 6 Noroeste 18 Noroeste 0 -- -- 27
2019-10-03 21:00:00 23.3 13 Noroeste 17 Noroeste 0 -- -- 29
2019-10-03 20:00:00 25.6 12 Noroeste 22 Noroeste 0 -- -- 30
2019-10-03 19:00:00 27.5 12 Noroeste 26 Oeste 0 -- -- 30
2019-10-03 18:00:00 27.5 14 Norte 28 Noroeste 0 -- -- 27
2019-10-03 17:00:00 27.6 16 Noroeste 30 Noroeste 0 -- -- 27
2019-10-03 16:00:00 27 15 Norte 26 Noroeste 0 -- -- 27
2019-10-03 15:00:00 26.8 12 Noroeste 23 Norte 0 -- -- 31
2019-10-03 14:00:00 25.6 11 Noroeste 21 Noroeste 0 -- -- 35
2019-10-03 13:00:00 23.2 8 Norte 16 Norte 0 -- -- 42
2019-10-03 12:00:00 20.9 7 Noroeste 14 Norte 0 -- -- 48
2019-10-03 11:00:00 17.9 5 Noroeste 13 Noroeste 0 -- -- 60
2019-10-03 10:00:00 15.1 8 Noroeste 19 Noroeste 0 -- -- 70
2019-10-03 09:00:00 12.8 10 Noroeste 14 Noroeste 0 -- -- 76
2019-10-03 08:00:00 12.7 8 Noroeste 12 Noroeste 0 -- -- 73
2019-10-03 07:00:00 13 6 Noroeste 12 Noroeste 0 -- -- 69
2019-10-03 06:00:00 14.6 9 Noroeste 13 Noroeste 0 -- -- 66
2019-10-03 05:00:00 15.2 8 Noroeste 13 Noroeste 0 -- -- 63
2019-10-03 04:00:00 15.9 6 Noroeste 12 Noroeste 0 -- -- 60
2019-10-03 03:00:00 16.2 8 Noroeste 13 Oeste 0 -- -- 57
2019-10-03 02:00:00 17 9 Noroeste 14 Noroeste 0 -- -- 55
2019-10-03 01:00:00 18 9 Noroeste 17 Noroeste 0 -- -- 51
2019-10-03 00:00:00 19 13 Noroeste 19 Noroeste 0 -- -- 47
2019-10-02 23:00:00 20 13 Noroeste 19 Noroeste 0 -- -- 43
2019-10-02 22:00:00 21 11 Noroeste 15 Noroeste 0 -- -- 37
2019-10-02 21:00:00 22.3 11 Noroeste 18 Noroeste 0 -- -- 33
2019-10-02 20:00:00 24.4 13 Noroeste 21 Noroeste 0 -- -- 30
2019-10-02 19:00:00 26 14 Noroeste 24 Norte 0 -- -- 27
2019-10-02 18:00:00 26.4 13 Norte 24 Norte 0 -- -- 27
2019-10-02 17:00:00 25.8 12 Norte 24 Noroeste 0 -- -- 31
2019-10-02 16:00:00 25.4 11 Noroeste 27 Noroeste 0 -- -- 32
2019-10-02 15:00:00 24.2 14 Noroeste 27 Noroeste 0 -- -- 36
2019-10-02 14:00:00 22.6 16 Noroeste 29 Noroeste 0 -- -- 39
2019-10-02 13:00:00 20.6 16 Noroeste 24 Noroeste 0 -- -- 54
2019-10-02 12:00:00 18.5 13 Noroeste 25 Noroeste 0 -- -- 62
2019-10-02 11:00:00 16.4 18 Noroeste 24 Noroeste 0 -- -- 74
2019-10-02 10:00:00 14.5 15 Noroeste 23 Norte 0 -- -- 83
2019-10-02 09:00:00 12.5 8 Noroeste 14 Noroeste 0 -- -- 93
2019-10-02 08:00:00 12.1 8 Noroeste 16 Noroeste 0 -- -- 93
2019-10-02 07:00:00 12.3 9 Noroeste 15 Noroeste 0 -- -- 91
2019-10-02 06:00:00 12.9 13 Noroeste 19 Noroeste 0 -- -- 88
2019-10-02 05:00:00 13.7 12 Noroeste 20 Noroeste 0 -- -- 84
2019-10-02 04:00:00 14.5 10 Noroeste 21 Noroeste 0 -- -- 81
2019-10-02 03:00:00 15.5 13 Noroeste 27 Noroeste 0 -- -- 76
2019-10-02 02:00:00 16.7 13 Noroeste 28 Noroeste 0 -- -- 70
2019-10-02 01:00:00 18.1 15 Noroeste 33 Noroeste 0 -- -- 65
2019-10-02 00:00:00 19.4 20 Noroeste 34 Noroeste 0 -- -- 60
2019-10-01 23:00:00 20.5 17 Noroeste 26 Noroeste 0 -- -- 54
2019-10-01 22:00:00 21.8 16 Noroeste 24 Noroeste 0 -- -- 49
2019-10-01 21:00:00 22.9 15 Noroeste 26 Noroeste 0 -- -- 45
2019-10-01 20:00:00 24.3 18 Noroeste 33 Noroeste 0 -- -- 43
2019-10-01 19:00:00 25.6 19 Noroeste 35 Norte 0 -- -- 42
2019-10-01 18:00:00 26.4 21 Noroeste 41 Noroeste 0 -- -- 41
2019-10-01 17:00:00 25.5 19 Norte 39 Noroeste 0 -- -- 45
2019-10-01 16:00:00 26.1 23 Norte 40 Norte 0 -- -- 42
2019-10-01 15:00:00 25.4 22 Norte 41 Noroeste 0 -- -- 45
2019-10-01 14:00:00 24.5 19 Noroeste 31 Noroeste 0 -- -- 49
2019-10-01 13:00:00 22.6 17 Noroeste 32 Noroeste 0 -- -- 57
2019-10-01 12:00:00 20.5 14 Noroeste 26 Noroeste 0 -- -- 66
2019-10-01 11:00:00 17.6 18 Noroeste 31 Noroeste 0 -- -- 78
2019-10-01 10:00:00 16.5 19 Noroeste 34 Noroeste 0 -- -- 84
2019-10-01 09:00:00 16 17 Noroeste 30 Noroeste 0 -- -- 87
2019-10-01 08:00:00 15.9 11 Noroeste 19 Noroeste 0 -- -- 84
2019-10-01 07:00:00 17 7 Noroeste 17 Noroeste 0 -- -- 80
2019-10-01 06:00:00 17.8 10 Noroeste 26 Noroeste 0 -- -- 77
2019-10-01 05:00:00 19.3 11 Noroeste 21 Noroeste 0 -- -- 58
2019-10-01 04:00:00 19.7 8 Noroeste 18 Noroeste 0 -- -- 58
2019-10-01 03:00:00 20.2 10 Oeste 13 Noroeste 0 -- -- 47
2019-10-01 02:00:00 20.9 8 Noroeste 19 Noroeste 0 -- -- 43
2019-10-01 01:00:00 21.5 9 Noroeste 15 Noroeste 0 -- -- 38
2019-10-01 00:00:00 22.2 12 Oeste 14 Oeste 0 -- -- 34
2019-09-30 23:00:00 23.3 8 Noroeste 13 Noroeste 0 -- -- 31
2019-09-30 22:00:00 24.7 10 Oeste 19 Noroeste 0 -- -- 26
2019-09-30 21:00:00 27 8 Noroeste 22 Noroeste 0 -- -- 24
2019-09-30 20:00:00 29 14 Noroeste 32 Noroeste 0 -- -- 21
2019-09-30 19:00:00 31.1 19 Noroeste 32 Norte 0 -- -- 20
2019-09-30 18:00:00 32.6 18 Noroeste 31 Noroeste 0 -- -- 19
2019-09-30 17:00:00 33.5 16 Noroeste 27 Noroeste 0 -- -- 21
2019-09-30 16:00:00 33.4 15 Oeste 27 Oeste 0 -- -- 17
2019-09-30 15:00:00 32.3 8 Sur 21 Sudoeste 0 -- -- 21
2019-09-30 14:00:00 31.1 5 Sudoeste 12 Norte 0 -- -- 23
2019-09-30 13:00:00 29.1 4 Sudoeste 9 Sudoeste 0 -- -- 26
2019-09-30 12:00:00 26.1 4 Sur 9 Sur 0 -- -- 35
2019-09-30 11:00:00 22.1 6 Sudeste 11 Sur 0 -- -- 43
2019-09-30 10:00:00 18.3 5 Sur 8 Sur 0 -- -- 55
2019-09-30 09:00:00 14.8 5 Sur -- -- 0 -- -- 63
2019-09-30 08:00:00 14 4 Sur 6 Sur 0 -- -- 64
2019-09-30 07:00:00 14.3 0 Calma 4 Noroeste 0 -- -- 59
2019-09-30 06:00:00 15.3 2 Oeste 4 Sur 0 -- -- 53
2019-09-30 05:00:00 17.1 2 Oeste 7 Noroeste 0 -- -- 51
2019-09-30 04:00:00 18.7 7 Noroeste 12 Noroeste 0 -- -- 49
2019-09-30 03:00:00 17.6 7 Oeste 12 Oeste 0 -- -- 42
2019-09-30 02:00:00 18.8 10 Oeste 13 Noroeste 0 -- -- 35
2019-09-30 01:00:00 19.4 10 Oeste 12 Noroeste 0 -- -- 31
2019-09-30 00:00:00 21 8 Oeste 9 Oeste 0 -- -- 32
2019-09-29 23:00:00 21.6 8 Oeste 10 Noroeste 0 -- -- 33
2019-09-29 22:00:00 24 5 Noroeste 12 Norte 0 -- -- 32
2019-09-29 21:00:00 25.4 10 Norte 13 Norte 0 -- -- 29
2019-09-29 20:00:00 27.9 9 Nordeste 21 Norte 0 -- -- 26
2019-09-29 19:00:00 30 13 Norte 23 Noroeste 0 -- -- 25
2019-09-29 18:00:00 31 12 Noroeste 24 Noroeste 0 -- -- 27
2019-09-29 17:00:00 31.2 8 Norte 24 Noroeste 0 -- -- 27
2019-09-29 16:00:00 31.6 10 Oeste 19 Norte 0 -- -- 26
2019-09-29 15:00:00 30.7 11 Noroeste 25 Norte 0 -- -- 28
2019-09-29 14:00:00 29.3 9 Norte 18 Norte -- -- -- 31
2019-09-29 13:00:00 27.8 7 Norte 12 Norte 0 -- -- 35
2019-09-29 12:00:00 25.7 4 Norte 9 Norte 0 -- -- 40
2019-09-29 11:00:00 22.8 0 Calma 8 Sur 0 -- -- 47
2019-09-29 10:00:00 19.5 4 Sur 6 Sur 0 -- -- 51
2019-09-29 09:00:00 15.4 3 Sur 5 Sur 0 -- -- 56
2019-09-29 08:00:00 14.9 2 Oeste 9 Sudoeste 0 -- -- 54
2019-09-29 07:00:00 15.4 8 Sudoeste 9 Sudoeste 0 -- -- 53
2019-09-29 06:00:00 17.5 5 Oeste 9 Oeste 0 -- -- 51
2019-09-29 05:00:00 17.2 9 Oeste 10 Oeste 0 -- -- 49
2019-09-29 04:00:00 18.6 9 Oeste 11 Noroeste 0 -- -- 46
2019-09-29 03:00:00 19.9 6 Noroeste 12 Oeste 0 -- -- 42
2019-09-29 02:00:00 21 5 Noroeste 12 Oeste 0 -- -- 39
2019-09-29 01:00:00 21.4 9 Noroeste 13 Oeste 0 -- -- 37
2019-09-29 00:00:00 22.7 6 Noroeste 13 Noroeste 0 -- -- 33
2019-09-28 23:00:00 23.6 9 Oeste 10 Oeste 0 -- -- 34
2019-09-28 22:00:00 24.9 8 Norte 12 Norte 0 -- -- 33
2019-09-28 21:00:00 26.3 9 Norte 19 Norte 0 -- -- 31
2019-09-28 20:00:00 29 12 Norte 21 Norte 0 -- -- 28
2019-09-28 19:00:00 30.9 12 Norte 26 Norte 0 -- -- 23
2019-09-28 18:00:00 32.2 20 Norte 39 Noroeste 0 -- -- 22
2019-09-28 17:00:00 33.3 6 Sudoeste 25 Sudoeste 0 -- -- 20
2019-09-28 16:00:00 32.6 5 Sudoeste 21 Sudoeste 0 -- -- 22
2019-09-28 15:00:00 31 6 Sudeste 18 Sur 0 -- -- 26
2019-09-28 14:00:00 29.5 4 Este 16 Este 0 -- -- 30
2019-09-28 13:00:00 27.1 6 Sudeste 14 Sudeste 0 -- -- 35
2019-09-28 12:00:00 24.6 5 Sudeste 10 Este 0 -- -- 45
2019-09-28 11:00:00 21.6 3 Sur 6 Sur 0 -- -- 57
2019-09-28 10:00:00 18.1 4 Sur 9 Sudoeste 0 -- -- 68
2019-09-28 09:00:00 14.1 8 Sudoeste 10 Sudoeste 0 -- -- 75
2019-09-28 08:00:00 13.6 7 Sudoeste 9 Sudoeste 0 -- -- 80
2019-09-28 07:00:00 14.9 4 Sudoeste 9 Noroeste 0 -- -- 73
2019-09-28 06:00:00 16.4 8 Noroeste 10 Noroeste 0 -- -- 75
2019-09-28 05:00:00 16.8 8 Noroeste 10 Noroeste 0 -- -- 71
2019-09-28 04:00:00 17.6 4 Noroeste 13 Noroeste 0 -- -- 67
2019-09-28 03:00:00 18.1 5 Noroeste 12 Noroeste 0 -- -- 63
2019-09-28 02:00:00 18.8 9 Noroeste 15 Oeste 0 -- -- 57
2019-09-28 01:00:00 19.7 8 Noroeste 14 Noroeste 0 -- -- 48
2019-09-28 00:00:00 20.7 12 Noroeste 16 Noroeste 0 -- -- 42
2019-09-27 23:00:00 21.9 11 Noroeste 17 Noroeste 0 -- -- 33
2019-09-27 22:00:00 24.1 12 Noroeste 20 Noroeste 0 -- -- 32
2019-09-27 21:00:00 25.7 8 Noroeste 13 Norte 0 -- -- 32
2019-09-27 20:00:00 27.6 6 Noroeste 19 Norte 0 -- -- 29
2019-09-27 19:00:00 29.1 12 Norte 24 Noroeste 0 -- -- 23
2019-09-27 18:00:00 30.1 12 Norte 23 Noroeste 0 -- -- 24
2019-09-27 17:00:00 30.7 11 Noroeste 23 Noroeste 0 -- -- 27
2019-09-27 16:00:00 30.2 12 Noroeste 20 Noroeste 0 -- -- 29
2019-09-27 15:00:00 28.8 9 Norte 19 Noroeste 0 -- -- 33
2019-09-27 14:00:00 27.5 9 Norte 16 Norte 0 -- -- 37
2019-09-27 13:00:00 25.1 5 Noroeste 15 Noroeste 0 -- -- 44
2019-09-27 12:00:00 22.4 12 Norte 17 Noroeste 0 -- -- 54
2019-09-27 11:00:00 20.9 4 Norte 10 Norte 0 -- -- 55
2019-09-27 10:00:00 18.5 2 Este 10 Sur 0 -- -- 60
2019-09-27 09:00:00 14.7 10 Sur 13 Sur 0 -- -- 67
2019-09-27 08:00:00 13.6 8 Sur 9 Sur 0 -- -- 72
2019-09-27 07:00:00 14.3 2 Sur 4 Sur 0 -- -- 73
2019-09-27 06:00:00 15.8 3 Norte 7 Noroeste 0 -- -- 72
2019-09-27 05:00:00 17.2 8 Noroeste 12 Noroeste 0 -- -- 68
2019-09-27 04:00:00 17.8 5 Noroeste 14 Noroeste 0 -- -- 62
2019-09-27 03:00:00 18.7 9 Noroeste 14 Noroeste 0 -- -- 56
2019-09-27 02:00:00 19.3 8 Noroeste 13 Noroeste 0 -- -- 52
2019-09-27 01:00:00 20.3 7 Noroeste 15 Noroeste 0 -- -- 48
2019-09-27 00:00:00 21.4 13 Noroeste 17 Noroeste 0 -- -- 44
2019-09-26 23:00:00 22.7 5 Noroeste 6 Noroeste 0 -- -- 39
2019-09-26 22:00:00 23.1 4 Norte 8 Norte 0 -- -- 40
2019-09-26 21:00:00 24.2 6 Norte 15 Norte 0 -- -- 38
2019-09-26 20:00:00 26.6 13 Norte 22 Norte 0 -- -- 34
2019-09-26 19:00:00 28.5 13 Norte 21 Norte 0 -- -- 32
2019-09-26 18:00:00 29.4 7 Nordeste 23 Nordeste 0 -- -- 29
2019-09-26 17:00:00 29.5 9 Noroeste 18 Noroeste 0 -- -- 29
2019-09-26 16:00:00 29.1 7 Noroeste 17 Noroeste 0 -- -- 29
2019-09-26 15:00:00 28.1 4 Sudoeste 23 Noroeste 0 -- -- 32
2019-09-26 14:00:00 26.7 5 Norte 12 Nordeste 0 -- -- 39
2019-09-26 13:00:00 24.7 3 Sudeste 12 Norte 0 -- -- 45
2019-09-26 12:00:00 22.6 4 Noroeste 10 Norte 0 -- -- 52
2019-09-26 11:00:00 20 3 Noroeste 6 Noroeste 0 -- -- 60
2019-09-26 10:00:00 17.3 2 Noroeste 6 Sudoeste 0 -- -- 68
2019-09-26 09:00:00 13.5 4 Sudoeste 9 Sudoeste 0 -- -- 78
2019-09-26 08:00:00 12.7 5 Sudoeste 6 Sudoeste 0 -- -- 80
2019-09-26 07:00:00 14.1 3 Oeste 10 Noroeste 0 -- -- 77
2019-09-26 06:00:00 15 6 Noroeste 9 Noroeste 0 -- -- 75
2019-09-26 05:00:00 15.5 8 Noroeste 12 Noroeste 0 -- -- 73
2019-09-26 04:00:00 16 10 Noroeste 14 Noroeste 0 -- -- 71
2019-09-26 03:00:00 16.7 5 Noroeste 16 Noroeste 0 -- -- 65
2019-09-26 02:00:00 17.5 11 Noroeste 17 Noroeste 0 -- -- 62
2019-09-26 01:00:00 18.3 9 Noroeste 17 Noroeste 0 -- -- 58
2019-09-26 00:00:00 19.2 10 Noroeste 17 Noroeste 0 -- -- 54
2019-09-25 23:00:00 20.1 11 Noroeste 17 Noroeste 0 -- -- 49
2019-09-25 22:00:00 21.2 8 Norte 12 Norte 0 -- -- 44
2019-09-25 21:00:00 22.5 8 Norte 19 Norte 0 -- -- 39
2019-09-25 20:00:00 24.5 13 Norte 24 Norte 0 -- -- 35
2019-09-25 19:00:00 25.7 14 Norte 28 Norte 0 -- -- 34
2019-09-25 18:00:00 26.3 16 Norte 25 Norte 0 -- -- 32
2019-09-25 17:00:00 25.9 16 Norte 35 Norte 0 -- -- 34
2019-09-25 16:00:00 25.6 14 Norte 28 Norte 0 -- -- 36
2019-09-25 15:00:00 24.6 19 Norte 36 Norte 0 -- -- 38
2019-09-25 14:00:00 23 16 Norte 28 Noroeste 0 -- -- 44
2019-09-25 13:00:00 20.7 14 Norte 26 Norte 0 -- -- 53
2019-09-25 12:00:00 19.1 10 Norte 19 Noroeste 0 -- -- 62
2019-09-25 11:00:00 17.7 12 Noroeste 21 Norte 0 -- -- 73
2019-09-25 10:00:00 15.4 8 Noroeste 17 Noroeste 0 -- -- 88
2019-09-25 09:00:00 13.8 11 Noroeste 19 Noroeste 0 -- -- 95
2019-09-25 08:00:00 13.6 5 Noroeste 14 Noroeste 0 -- -- 94
2019-09-25 07:00:00 14 7 Noroeste 14 Noroeste 0 -- -- 93
2019-09-25 06:00:00 14.6 8 Noroeste 16 Noroeste 0 -- -- 92
2019-09-25 05:00:00 15.3 10 Noroeste 18 Noroeste 0 -- -- 90
2019-09-25 04:00:00 16.3 12 Noroeste 20 Noroeste 0 -- -- 87
2019-09-25 03:00:00 17.1 10 Noroeste 17 Noroeste 0 -- -- 85
2019-09-25 02:00:00 18.2 12 Noroeste 24 Norte 0 -- -- 84
2019-09-25 01:00:00 19.9 16 Norte 33 Noroeste 0 -- -- 77
2019-09-25 00:00:00 20.8 15 Noroeste 22 Noroeste 0 -- -- 77
2019-09-24 23:00:00 21.2 15 Noroeste 31 Norte 0 -- -- 80
2019-09-24 22:00:00 22 13 Noroeste 27 Norte 0 -- -- 76
2019-09-24 21:00:00 23.4 14 Norte 30 Norte 0 -- -- 67
2019-09-24 20:00:00 24.5 23 Norte 33 Noroeste 0 -- -- 63
2019-09-24 19:00:00 26.3 21 Noroeste 31 Noroeste 0 -- -- 56
2019-09-24 18:00:00 26.7 21 Norte 33 Noroeste 0 -- -- 54
2019-09-24 17:00:00 27.8 17 Noroeste 31 Norte 0 -- -- 49
2019-09-24 16:00:00 27.4 12 Noroeste 29 Norte 0 -- -- 48
2019-09-24 15:00:00 27 14 Noroeste 24 Noroeste 0 -- -- 43
2019-09-24 14:00:00 26 11 Noroeste 23 Noroeste 0 -- -- 38
2019-09-24 13:00:00 24 9 Noroeste 16 Oeste 0 -- -- 42
2019-09-24 12:00:00 22 6 Noroeste 15 Noroeste 0 -- -- 51
2019-09-24 11:00:00 20.4 8 Noroeste 17 Norte 0 -- -- 57
2019-09-24 10:00:00 18.6 5 Noroeste 9 Noroeste 0 -- -- 63
2019-09-24 09:00:00 14.6 8 Oeste 11 Oeste 0 -- -- 77
2019-09-24 08:00:00 13.7 7 Oeste 12 Oeste 0 -- -- 81
2019-09-24 07:00:00 14.2 9 Oeste 11 Noroeste 0 -- -- 79
2019-09-24 06:00:00 14.7 10 Oeste 12 Noroeste 0 -- -- 74
2019-09-24 05:00:00 16.1 9 Noroeste 15 Noroeste 0 -- -- 69
2019-09-24 04:00:00 16.4 6 Noroeste 12 Noroeste 0 -- -- 65
2019-09-24 03:00:00 16.3 6 Noroeste 12 Oeste 0 -- -- 59
2019-09-24 02:00:00 17 5 Noroeste 9 Noroeste 0 -- -- 55
2019-09-24 01:00:00 18.2 6 Oeste 9 Noroeste 0 -- -- 50
2019-09-24 00:00:00 19.4 3 Noroeste 7 Norte 0 -- -- 47
2019-09-23 23:00:00 19.4 7 Norte 8 Norte 0 -- -- 47
2019-09-23 22:00:00 20 6 Norte 8 Nordeste 0 -- -- 45
2019-09-23 21:00:00 21.3 7 Nordeste 14 Norte 0 -- -- 41
2019-09-23 20:00:00 23.9 9 Nordeste 15 Nordeste 0 -- -- 37
2019-09-23 19:00:00 25.9 8 Noroeste 18 Norte 0 -- -- 30
2019-09-23 18:00:00 26.4 9 Noroeste 19 Norte 0 -- -- 30
2019-09-23 17:00:00 26.2 8 Oeste 18 Noroeste 0 -- -- 32
2019-09-23 16:00:00 25.3 5 Sudoeste 15 Noroeste 0 -- -- 32
2019-09-23 15:00:00 24.4 4 Noroeste 15 Norte 0 -- -- 41
2019-09-23 14:00:00 23.1 4 Sudeste 15 Norte 0 -- -- 47
2019-09-23 13:00:00 22 5 Este 12 Noroeste 0 -- -- 52
2019-09-23 12:00:00 20.4 3 Sudeste 7 Sudeste 0 -- -- 55
2019-09-23 11:00:00 18.1 0 Calma 5 Oeste 0 -- -- 68
2019-09-23 10:00:00 14.6 4 Sur 7 Sur 0 -- -- 81
2019-09-23 09:00:00 12.2 2 Oeste 5 Sudoeste 0 -- -- 90
2019-09-23 08:00:00 12 4 Oeste 8 Oeste 0 -- -- 84
2019-09-23 07:00:00 12.3 5 Oeste 9 Noroeste 0 -- -- 87
2019-09-23 06:00:00 12.5 5 Noroeste 9 Oeste 0 -- -- 88
2019-09-23 05:00:00 12.6 9 Oeste 10 Noroeste 0 -- -- 83
2019-09-23 04:00:00 13.9 6 Noroeste 14 Noroeste 0 -- -- 80
2019-09-23 03:00:00 14.6 4 Noroeste 13 Noroeste 0 -- -- 76
2019-09-23 02:00:00 14.6 8 Noroeste 12 Noroeste 0 -- -- 74
2019-09-23 01:00:00 15 9 Oeste 10 Oeste 0 -- -- 71
2019-09-23 00:00:00 16.3 5 Noroeste 8 Oeste 0 -- -- 66
2019-09-22 23:00:00 17.4 4 Noroeste 9 Noroeste 0 -- -- 63
2019-09-22 22:00:00 18.6 6 Noroeste 10 Norte 0 -- -- 60
2019-09-22 21:00:00 19.5 7 Norte 14 Norte 0 -- -- 59
2019-09-22 20:00:00 21.1 10 Norte 22 Noroeste 0 -- -- 53
2019-09-22 19:00:00 22.1 12 Noroeste 25 Norte 0 -- -- 49
2019-09-22 18:00:00 22.2 14 Noroeste 26 Noroeste 0 -- -- 51
2019-09-22 17:00:00 22 13 Norte 25 Norte 0 -- -- 54
2019-09-22 16:00:00 22.1 13 Noroeste 26 Norte 0 -- -- 57
2019-09-22 15:00:00 21 13 Norte 27 Noroeste 0 -- -- 59
2019-09-22 14:00:00 20.6 14 Noroeste 26 Noroeste 0 -- -- 66
2019-09-22 13:00:00 20.2 10 Noroeste 19 Noroeste 0 -- -- 68
2019-09-22 12:00:00 18.5 10 Noroeste 18 Noroeste 0 -- -- 77
2019-09-22 11:00:00 16.7 9 Noroeste 20 Noroeste 0 -- -- 84
2019-09-22 10:00:00 15.6 12 Noroeste 21 Oeste 0 -- -- 90
2019-09-22 09:00:00 14.4 9 Noroeste 18 Noroeste 0 -- -- 93
2019-09-22 08:00:00 14 9 Noroeste 19 Noroeste 0 -- -- 94
2019-09-22 07:00:00 14.2 8 Noroeste 24 Noroeste 0 -- -- 94
2019-09-22 06:00:00 14.7 17 Noroeste 25 Noroeste 0 -- -- 92
2019-09-22 05:00:00 15.8 16 Noroeste 31 Norte 1.2 -- -- 90
2019-09-22 04:00:00 17.6 12 Oeste 21 Sudoeste 0.2 -- -- 93
2019-09-22 03:00:00 18.1 13 Oeste 30 Oeste 0 -- -- 88
2019-09-22 02:00:00 18.6 21 Oeste 33 Oeste 0 -- -- 84
2019-09-22 01:00:00 19.2 13 Sudoeste 21 Sudoeste 0 -- -- 82
2019-09-22 00:00:00 19.6 12 Sudoeste 28 Sudoeste 0 -- -- 81
2019-09-21 23:00:00 19.7 15 Sudoeste 30 Oeste 0.2 -- -- 81
2019-09-21 22:00:00 19.9 13 Sudoeste 40 Sudoeste 0.4 -- -- 84
2019-09-21 21:00:00 20.9 23 Sudoeste 46 Sudoeste 0 -- -- 75
2019-09-21 20:00:00 22 18 Sudoeste 34 Sudoeste 0 -- -- 69
2019-09-21 19:00:00 22.7 20 Sudoeste 35 Sudoeste 0 -- -- 67
2019-09-21 18:00:00 23.2 21 Sudoeste 33 Sudoeste 0 -- -- 67
2019-09-21 17:00:00 22 20 Sudoeste 36 Sudoeste 0 -- -- 72
2019-09-21 16:00:00 21.5 18 Oeste 33 Sudoeste 0 -- -- 78
2019-09-21 15:00:00 20.3 21 Oeste 35 Sudoeste 0 -- -- 83
2019-09-21 14:00:00 20.2 20 Sudoeste 35 Sudoeste 0.2 -- -- 81
2019-09-21 13:00:00 19.5 15 Sudoeste 22 Sudoeste 0.2 -- -- 79
2019-09-21 12:00:00 18.6 12 Sur 19 Sur 0.8 -- -- 81
2019-09-21 11:00:00 18.9 12 Sur 20 Sudoeste 0 -- -- 75
2019-09-21 10:00:00 19 10 Sudoeste 14 Sudoeste 0 -- -- 70
2019-09-21 09:00:00 18.1 6 Sur 14 Sur 0 -- -- 69
2019-09-21 08:00:00 17.6 7 Sur 9 Sur 0 -- -- 68
2019-09-21 07:00:00 17.8 8 Sur 12 Sudoeste 0 -- -- 68
2019-09-21 06:00:00 18 8 Sur 12 Sur 0 -- -- 69
2019-09-21 05:00:00 18.3 7 Sudoeste 13 Sudoeste 0 -- -- 71
2019-09-21 04:00:00 18 8 Sudoeste 12 Sudoeste 0 -- -- 73
2019-09-21 03:00:00 17.8 8 Sudoeste 12 Sudoeste 0 -- -- 73
2019-09-21 02:00:00 17.9 7 Sudoeste 14 Sudoeste 0 -- -- 70
2019-09-21 01:00:00 18.3 9 Sudoeste 16 Sudoeste 0 -- -- 68
2019-09-21 00:00:00 18.7 10 Sudoeste 15 Sudoeste 0 -- -- 67
2019-09-20 23:00:00 19.7 12 Oeste 16 Oeste 0 -- -- 62
2019-09-20 22:00:00 20.5 11 Oeste 19 Oeste 0 -- -- 58
2019-09-20 21:00:00 21.5 12 Sudoeste 21 Sudoeste 0 -- -- 59
2019-09-20 20:00:00 22.9 5 Noroeste 18 Oeste 0 -- -- 56
2019-09-20 19:00:00 23.3 2 Nordeste 21 Oeste 0 -- -- 57
2019-09-20 18:00:00 24.8 13 Oeste 25 Oeste 0 -- -- 45
2019-09-20 17:00:00 25.6 20 Oeste 34 Oeste 0 -- -- 44
2019-09-20 16:00:00 26.5 20 Sudoeste 33 Sudoeste 0 -- -- 42
2019-09-20 15:00:00 26.8 20 Oeste 36 Sudoeste 0 -- -- 44
2019-09-20 14:00:00 26 23 Sudoeste 34 Oeste 0 -- -- 46
2019-09-20 13:00:00 26.2 20 Sudoeste 35 Sudoeste 0 -- -- 44
2019-09-20 12:00:00 24.8 16 Oeste 27 Sudoeste 0 -- -- 47
2019-09-20 11:00:00 22.1 11 Sudoeste 19 Sur 0 -- -- 52
2019-09-20 10:00:00 17.5 9 Sudeste 13 Sur 0 -- -- 66
2019-09-20 09:00:00 16 7 Sur 9 Sur 0 -- -- 74
2019-09-20 08:00:00 15.5 5 Sudeste 8 Sur 0 -- -- 75
2019-09-20 07:00:00 16.1 4 Sur 8 Sur 0 -- -- 71
2019-09-20 06:00:00 17.9 5 Noroeste 8 Noroeste 0 -- -- 72
2019-09-20 05:00:00 18.1 3 Noroeste 12 Noroeste 0 -- -- 68
2019-09-20 04:00:00 18.6 8 Oeste 9 Oeste 0 -- -- 65
2019-09-20 03:00:00 20 5 Noroeste 13 Oeste 0 -- -- 62
2019-09-20 02:00:00 20.9 8 Noroeste 15 Noroeste 0 -- -- 58
2019-09-20 01:00:00 21.7 8 Noroeste 21 Noroeste 0 -- -- 54
2019-09-20 00:00:00 22.7 11 Noroeste 18 Noroeste 0 -- -- 48
2019-09-19 23:00:00 23.8 7 Noroeste 18 Noroeste 0 -- -- 43
2019-09-19 22:00:00 24.9 9 Noroeste 22 Oeste 0 -- -- 41
2019-09-19 21:00:00 26 14 Noroeste 28 Noroeste 0 -- -- 39
2019-09-19 20:00:00 27.9 9 Norte 24 Norte 0 -- -- 37
2019-09-19 19:00:00 29.1 5 Nordeste 21 Este 0 -- -- 34
2019-09-19 18:00:00 30.6 7 Nordeste 22 Sur 0 -- -- 30
2019-09-19 17:00:00 30.7 8 Noroeste 19 Oeste 0 -- -- 31
2019-09-19 16:00:00 29.5 5 Nordeste 20 Sudeste 0 -- -- 36
2019-09-19 15:00:00 28.9 10 Oeste 19 Oeste 0 -- -- 37
2019-09-19 14:00:00 27.5 7 Este 12 Este 0 -- -- 43
2019-09-19 13:00:00 25.6 3 Nordeste 10 Nordeste 0 -- -- 48
2019-09-19 12:00:00 23.5 4 Norte 12 Nordeste 0 -- -- 54
2019-09-19 11:00:00 21.9 4 Norte 8 Nordeste 0 -- -- 59
2019-09-19 10:00:00 19.7 0 Calma 4 Sur 0 -- -- 65
2019-09-19 09:00:00 15.9 2 Sudoeste 5 Sudoeste 0 -- -- 75
2019-09-19 08:00:00 14.8 5 Sudoeste 9 Sudoeste 0 -- -- 75
2019-09-19 07:00:00 15.1 8 Sudoeste 10 Sudoeste 0 -- -- 76
2019-09-19 06:00:00 16 5 Oeste 10 Oeste 0 -- -- 74
2019-09-19 05:00:00 17.4 8 Oeste 12 Noroeste 0 -- -- 70
2019-09-19 04:00:00 18.2 7 Noroeste 18 Noroeste 0 -- -- 68
2019-09-19 03:00:00 18.9 10 Noroeste 22 Noroeste 0 -- -- 66
2019-09-19 02:00:00 19.8 15 Noroeste 26 Noroeste 0 -- -- 62
2019-09-19 01:00:00 21 18 Noroeste 30 Noroeste 0 -- -- 57
2019-09-19 00:00:00 22.4 12 Noroeste 24 Noroeste 0 -- -- 51
2019-09-18 23:00:00 23.8 13 Noroeste 22 Oeste 0 -- -- 44
2019-09-18 22:00:00 24.9 10 Noroeste 22 Noroeste 0 -- -- 41
2019-09-18 21:00:00 25.9 15 Noroeste 23 Noroeste 0 -- -- 37
2019-09-18 20:00:00 27.4 14 Nordeste 26 Norte 0 -- -- 37
2019-09-18 19:00:00 28.9 13 Nordeste 30 Sudoeste 0 -- -- 36
2019-09-18 18:00:00 31 8 Noroeste 37 Oeste 0 -- -- 28
2019-09-18 17:00:00 30.9 7 Sudoeste 19 Sudoeste 0 -- -- 24
2019-09-18 16:00:00 30.4 6 Oeste 30 Oeste 0 -- -- 26
2019-09-18 15:00:00 29.6 13 Sur 19 Sudoeste 0 -- -- 30
2019-09-18 14:00:00 28.2 11 Sur 19 Sudoeste 0 -- -- 35
2019-09-18 13:00:00 26 4 Norte 14 Oeste 0 -- -- 46
2019-09-18 12:00:00 24.4 4 Sudoeste 12 Sur 0 -- -- 53
2019-09-18 11:00:00 21.9 4 Nordeste 8 Norte 0 -- -- 61
2019-09-18 10:00:00 19.6 6 Noroeste 12 Norte 0 -- -- 67
2019-09-18 09:00:00 17.4 6 Norte 9 Norte 0 -- -- 73
2019-09-18 08:00:00 17.2 9 Nordeste 11 Nordeste 0 -- -- 76
2019-09-18 07:00:00 17.4 3 Este 8 Nordeste 0 -- -- 79
2019-09-18 06:00:00 17.9 4 Sudeste 8 Este 0 -- -- 77
2019-09-18 05:00:00 18.1 6 Este 10 Este 0 -- -- 80
2019-09-18 04:00:00 18.9 5 Este 11 Este 0 -- -- 67
2019-09-18 03:00:00 20 3 Noroeste 13 Sudoeste 0 -- -- 65
2019-09-18 02:00:00 20.2 9 Sudoeste 12 Sudoeste 0 -- -- 64
2019-09-18 01:00:00 21.1 7 Sur 16 Este 0 -- -- 62
2019-09-18 00:00:00 22.9 9 Este 21 Nordeste 0 -- -- 57
2019-09-17 23:00:00 24.7 12 Este 24 Nordeste 0 -- -- 49
2019-09-17 22:00:00 27.5 10 Noroeste 21 Noroeste 0 -- -- 40
2019-09-17 21:00:00 28.3 7 Noroeste 12 Norte 0 -- -- 38